sensor_id;sensor_type;location;lat;lon;timestamp;P1;durP1;ratioP1;P2;durP2;ratioP2
33152;SDS011;19509;43.862;26.176;2022-11-20T00:00:39;5.40;;;5.20;;
33152;SDS011;19509;43.862;26.176;2022-11-20T00:03:05;4.90;;;4.70;;
33152;SDS011;19509;43.862;26.176;2022-11-20T00:05:31;5.90;;;5.60;;
33152;SDS011;19509;43.862;26.176;2022-11-20T00:07:58;5.00;;;4.80;;
33152;SDS011;19509;43.862;26.176;2022-11-20T00:10:23;5.00;;;4.80;;
33152;SDS011;19509;43.862;26.176;2022-11-20T00:12:48;5.23;;;4.93;;
33152;SDS011;19509;43.862;26.176;2022-11-20T00:15:14;6.20;;;6.00;;
33152;SDS011;19509;43.862;26.176;2022-11-20T00:17:40;6.30;;;6.00;;
33152;SDS011;19509;43.862;26.176;2022-11-20T00:20:05;5.63;;;5.43;;
33152;SDS011;19509;43.862;26.176;2022-11-20T00:22:31;7.27;;;6.87;;
33152;SDS011;19509;43.862;26.176;2022-11-20T00:24:56;6.47;;;6.17;;
33152;SDS011;19509;43.862;26.176;2022-11-20T00:27:22;6.87;;;6.57;;
33152;SDS011;19509;43.862;26.176;2022-11-20T00:29:48;7.37;;;6.97;;
33152;SDS011;19509;43.862;26.176;2022-11-20T00:32:13;7.07;;;6.77;;
33152;SDS011;19509;43.862;26.176;2022-11-20T00:34:39;7.70;;;7.30;;
33152;SDS011;19509;43.862;26.176;2022-11-20T00:37:04;8.30;;;7.70;;
33152;SDS011;19509;43.862;26.176;2022-11-20T00:39:29;6.80;;;6.50;;
33152;SDS011;19509;43.862;26.176;2022-11-20T00:41:55;7.20;;;6.80;;
33152;SDS011;19509;43.862;26.176;2022-11-20T00:44:20;7.90;;;7.37;;
33152;SDS011;19509;43.862;26.176;2022-11-20T00:46:45;7.37;;;6.97;;
33152;SDS011;19509;43.862;26.176;2022-11-20T00:49:11;7.93;;;7.37;;
33152;SDS011;19509;43.862;26.176;2022-11-20T00:51:36;9.30;;;8.40;;
33152;SDS011;19509;43.862;26.176;2022-11-20T00:54:02;8.53;;;7.83;;
33152;SDS011;19509;43.862;26.176;2022-11-20T00:56:27;7.10;;;6.60;;
33152;SDS011;19509;43.862;26.176;2022-11-20T00:58:53;8.67;;;7.97;;
33152;SDS011;19509;43.862;26.176;2022-11-20T01:01:20;10.40;;;9.50;;
33152;SDS011;19509;43.862;26.176;2022-11-20T01:03:49;7.23;;;6.73;;
33152;SDS011;19509;43.862;26.176;2022-11-20T01:06:17;6.43;;;6.03;;
33152;SDS011;19509;43.862;26.176;2022-11-20T01:08:44;8.10;;;7.47;;
33152;SDS011;19509;43.862;26.176;2022-11-20T01:11:12;7.50;;;6.90;;
33152;SDS011;19509;43.862;26.176;2022-11-20T01:13:39;7.30;;;6.73;;
33152;SDS011;19509;43.862;26.176;2022-11-20T01:18:42;9.27;;;8.33;;
33152;SDS011;19509;43.862;26.176;2022-11-20T01:21:11;7.13;;;6.70;;
33152;SDS011;19509;43.862;26.176;2022-11-20T01:23:41;23.03;;;14.17;;
33152;SDS011;19509;43.862;26.176;2022-11-20T01:26:12;20.60;;;12.93;;
33152;SDS011;19509;43.862;26.176;2022-11-20T01:28:40;18.03;;;11.70;;
33152;SDS011;19509;43.862;26.176;2022-11-20T01:31:22;12.43;;;10.23;;
33152;SDS011;19509;43.862;26.176;2022-11-20T01:33:56;26.30;;;14.07;;
33152;SDS011;19509;43.862;26.176;2022-11-20T01:36:25;52.57;;;18.33;;
33152;SDS011;19509;43.862;26.176;2022-11-20T01:38:52;24.13;;;10.63;;
33152;SDS011;19509;43.862;26.176;2022-11-20T01:41:20;42.13;;;18.33;;
33152;SDS011;19509;43.862;26.176;2022-11-20T01:44:05;36.00;;;18.83;;
33152;SDS011;19509;43.862;26.176;2022-11-20T01:46:32;32.87;;;16.73;;
33152;SDS011;19509;43.862;26.176;2022-11-20T01:49:04;16.60;;;11.43;;
33152;SDS011;19509;43.862;26.176;2022-11-20T01:51:42;21.43;;;11.90;;
33152;SDS011;19509;43.862;26.176;2022-11-20T01:54:19;37.67;;;18.03;;
33152;SDS011;19509;43.862;26.176;2022-11-20T01:56:48;30.00;;;15.83;;
33152;SDS011;19509;43.862;26.176;2022-11-20T01:59:20;30.83;;;15.87;;
33152;SDS011;19509;43.862;26.176;2022-11-20T02:01:49;45.13;;;20.27;;
33152;SDS011;19509;43.862;26.176;2022-11-20T02:04:14;28.50;;;13.83;;
33152;SDS011;19509;43.862;26.176;2022-11-20T02:06:51;27.73;;;16.07;;
33152;SDS011;19509;43.862;26.176;2022-11-20T02:09:22;39.43;;;17.67;;
33152;SDS011;19509;43.862;26.176;2022-11-20T02:11:47;28.13;;;15.17;;
33152;SDS011;19509;43.862;26.176;2022-11-20T02:14:13;32.87;;;15.50;;
33152;SDS011;19509;43.862;26.176;2022-11-20T02:16:40;36.47;;;17.83;;
33152;SDS011;19509;43.862;26.176;2022-11-20T02:19:29;49.67;;;23.03;;
33152;SDS011;19509;43.862;26.176;2022-11-20T02:24:35;38.33;;;14.60;;
33152;SDS011;19509;43.862;26.176;2022-11-20T02:27:14;30.83;;;13.83;;
33152;SDS011;19509;43.862;26.176;2022-11-20T02:29:42;18.83;;;11.00;;
33152;SDS011;19509;43.862;26.176;2022-11-20T02:32:42;25.30;;;11.77;;
33152;SDS011;19509;43.862;26.176;2022-11-20T02:35:38;33.60;;;14.87;;
33152;SDS011;19509;43.862;26.176;2022-11-20T02:37:56;67.57;;;23.13;;
33152;SDS011;19509;43.862;26.176;2022-11-20T02:40:24;46.67;;;18.03;;
33152;SDS011;19509;43.862;26.176;2022-11-20T02:42:53;39.23;;;16.70;;
33152;SDS011;19509;43.862;26.176;2022-11-20T02:45:20;21.63;;;10.30;;
33152;SDS011;19509;43.862;26.176;2022-11-20T02:47:45;47.87;;;18.70;;
33152;SDS011;19509;43.862;26.176;2022-11-20T02:50:11;38.93;;;17.77;;
33152;SDS011;19509;43.862;26.176;2022-11-20T02:52:37;26.40;;;14.10;;
33152;SDS011;19509;43.862;26.176;2022-11-20T02:55:02;29.10;;;11.60;;
33152;SDS011;19509;43.862;26.176;2022-11-20T02:57:28;18.97;;;9.80;;
33152;SDS011;19509;43.862;26.176;2022-11-20T02:59:54;20.17;;;9.03;;
33152;SDS011;19509;43.862;26.176;2022-11-20T03:02:19;13.53;;;9.87;;
33152;SDS011;19509;43.862;26.176;2022-11-20T03:04:45;13.00;;;6.40;;
33152;SDS011;19509;43.862;26.176;2022-11-20T03:07:10;13.27;;;7.50;;
33152;SDS011;19509;43.862;26.176;2022-11-20T03:09:36;5.87;;;5.33;;
33152;SDS011;19509;43.862;26.176;2022-11-20T03:12:01;10.20;;;6.17;;
33152;SDS011;19509;43.862;26.176;2022-11-20T03:14:27;6.40;;;5.90;;
33152;SDS011;19509;43.862;26.176;2022-11-20T03:16:53;5.97;;;5.50;;
33152;SDS011;19509;43.862;26.176;2022-11-20T03:19:18;17.47;;;8.63;;
33152;SDS011;19509;43.862;26.176;2022-11-20T03:21:43;7.10;;;6.43;;
33152;SDS011;19509;43.862;26.176;2022-11-20T03:24:09;6.80;;;6.20;;
33152;SDS011;19509;43.862;26.176;2022-11-20T03:26:34;9.03;;;7.33;;
33152;SDS011;19509;43.862;26.176;2022-11-20T03:29:01;9.50;;;7.57;;
33152;SDS011;19509;43.862;26.176;2022-11-20T03:31:32;10.03;;;7.40;;
33152;SDS011;19509;43.862;26.176;2022-11-20T03:33:59;22.80;;;11.00;;
33152;SDS011;19509;43.862;26.176;2022-11-20T03:36:25;16.40;;;9.13;;
33152;SDS011;19509;43.862;26.176;2022-11-20T03:38:52;17.93;;;9.20;;
33152;SDS011;19509;43.862;26.176;2022-11-20T03:41:20;8.43;;;6.67;;
33152;SDS011;19509;43.862;26.176;2022-11-20T03:43:51;19.10;;;11.00;;
33152;SDS011;19509;43.862;26.176;2022-11-20T03:46:18;11.83;;;8.67;;
33152;SDS011;19509;43.862;26.176;2022-11-20T03:48:44;16.30;;;8.77;;
33152;SDS011;19509;43.862;26.176;2022-11-20T03:51:13;28.73;;;13.33;;
33152;SDS011;19509;43.862;26.176;2022-11-20T03:53:40;20.30;;;9.90;;
33152;SDS011;19509;43.862;26.176;2022-11-20T03:56:06;14.50;;;7.93;;
33152;SDS011;19509;43.862;26.176;2022-11-20T03:58:33;12.20;;;8.40;;
33152;SDS011;19509;43.862;26.176;2022-11-20T04:03:33;14.20;;;8.97;;
33152;SDS011;19509;43.862;26.176;2022-11-20T04:06:06;12.50;;;8.80;;
33152;SDS011;19509;43.862;26.176;2022-11-20T04:08:33;17.20;;;9.17;;
33152;SDS011;19509;43.862;26.176;2022-11-20T04:13:59;7.33;;;6.60;;
33152;SDS011;19509;43.862;26.176;2022-11-20T04:16:29;6.67;;;6.07;;
33152;SDS011;19509;43.862;26.176;2022-11-20T04:18:57;20.90;;;13.00;;
33152;SDS011;19509;43.862;26.176;2022-11-20T04:21:24;21.67;;;13.77;;
33152;SDS011;19509;43.862;26.176;2022-11-20T04:23:51;19.67;;;11.87;;
33152;SDS011;19509;43.862;26.176;2022-11-20T04:26:17;10.83;;;8.50;;
33152;SDS011;19509;43.862;26.176;2022-11-20T04:28:43;18.63;;;11.07;;
33152;SDS011;19509;43.862;26.176;2022-11-20T04:31:10;14.80;;;9.13;;
33152;SDS011;19509;43.862;26.176;2022-11-20T04:33:37;20.20;;;11.00;;
33152;SDS011;19509;43.862;26.176;2022-11-20T04:36:05;19.83;;;10.27;;
33152;SDS011;19509;43.862;26.176;2022-11-20T04:38:31;9.37;;;8.30;;
33152;SDS011;19509;43.862;26.176;2022-11-20T04:40:57;15.73;;;10.23;;
33152;SDS011;19509;43.862;26.176;2022-11-20T04:43:27;20.30;;;10.83;;
33152;SDS011;19509;43.862;26.176;2022-11-20T04:45:54;12.10;;;8.47;;
33152;SDS011;19509;43.862;26.176;2022-11-20T04:48:20;18.50;;;9.10;;
33152;SDS011;19509;43.862;26.176;2022-11-20T04:50:46;14.20;;;8.50;;
33152;SDS011;19509;43.862;26.176;2022-11-20T04:53:12;10.90;;;7.40;;
33152;SDS011;19509;43.862;26.176;2022-11-20T04:55:38;12.20;;;8.57;;
33152;SDS011;19509;43.862;26.176;2022-11-20T04:58:03;10.90;;;7.47;;
33152;SDS011;19509;43.862;26.176;2022-11-20T05:00:28;14.57;;;8.57;;
33152;SDS011;19509;43.862;26.176;2022-11-20T05:02:54;17.90;;;9.80;;
33152;SDS011;19509;43.862;26.176;2022-11-20T05:05:19;13.00;;;8.93;;
33152;SDS011;19509;43.862;26.176;2022-11-20T05:07:45;19.10;;;10.33;;
33152;SDS011;19509;43.862;26.176;2022-11-20T05:10:10;22.30;;;9.50;;
33152;SDS011;19509;43.862;26.176;2022-11-20T05:12:36;24.13;;;10.97;;
33152;SDS011;19509;43.862;26.176;2022-11-20T05:15:01;68.27;;;22.43;;
33152;SDS011;19509;43.862;26.176;2022-11-20T05:17:26;36.53;;;11.33;;
33152;SDS011;19509;43.862;26.176;2022-11-20T05:19:52;38.07;;;14.23;;
33152;SDS011;19509;43.862;26.176;2022-11-20T05:22:17;31.77;;;13.40;;
33152;SDS011;19509;43.862;26.176;2022-11-20T05:24:43;38.53;;;14.87;;
33152;SDS011;19509;43.862;26.176;2022-11-20T05:27:08;11.40;;;7.87;;
33152;SDS011;19509;43.862;26.176;2022-11-20T05:29:34;26.87;;;11.87;;
33152;SDS011;19509;43.862;26.176;2022-11-20T05:31:59;42.70;;;16.40;;
33152;SDS011;19509;43.862;26.176;2022-11-20T05:34:25;63.90;;;18.03;;
33152;SDS011;19509;43.862;26.176;2022-11-20T05:36:50;26.50;;;11.80;;
33152;SDS011;19509;43.862;26.176;2022-11-20T05:39:16;28.87;;;12.93;;
33152;SDS011;19509;43.862;26.176;2022-11-20T05:41:41;41.13;;;15.53;;
33152;SDS011;19509;43.862;26.176;2022-11-20T05:44:06;45.70;;;18.17;;
33152;SDS011;19509;43.862;26.176;2022-11-20T05:46:32;19.80;;;9.47;;
33152;SDS011;19509;43.862;26.176;2022-11-20T05:48:57;25.20;;;12.73;;
33152;SDS011;19509;43.862;26.176;2022-11-20T05:51:24;61.13;;;18.63;;
33152;SDS011;19509;43.862;26.176;2022-11-20T05:53:50;78.33;;;25.27;;
33152;SDS011;19509;43.862;26.176;2022-11-20T05:56:16;18.93;;;10.10;;
33152;SDS011;19509;43.862;26.176;2022-11-20T05:58:43;17.90;;;9.70;;
33152;SDS011;19509;43.862;26.176;2022-11-20T06:01:11;19.70;;;9.93;;
33152;SDS011;19509;43.862;26.176;2022-11-20T06:03:40;23.60;;;10.87;;
33152;SDS011;19509;43.862;26.176;2022-11-20T06:06:07;27.07;;;11.17;;
33152;SDS011;19509;43.862;26.176;2022-11-20T06:08:34;31.40;;;12.57;;
33152;SDS011;19509;43.862;26.176;2022-11-20T06:11:03;8.47;;;7.27;;
33152;SDS011;19509;43.862;26.176;2022-11-20T06:13:30;17.20;;;10.17;;
33152;SDS011;19509;43.862;26.176;2022-11-20T06:15:55;47.70;;;20.30;;
33152;SDS011;19509;43.862;26.176;2022-11-20T06:18:21;27.83;;;13.33;;
33152;SDS011;19509;43.862;26.176;2022-11-20T06:20:46;52.87;;;18.43;;
33152;SDS011;19509;43.862;26.176;2022-11-20T06:23:12;31.97;;;13.73;;
33152;SDS011;19509;43.862;26.176;2022-11-20T06:25:41;40.23;;;14.63;;
33152;SDS011;19509;43.862;26.176;2022-11-20T06:28:07;31.60;;;11.37;;
33152;SDS011;19509;43.862;26.176;2022-11-20T06:30:33;35.13;;;14.80;;
33152;SDS011;19509;43.862;26.176;2022-11-20T06:32:59;52.60;;;17.93;;
33152;SDS011;19509;43.862;26.176;2022-11-20T06:35:24;24.53;;;10.10;;
33152;SDS011;19509;43.862;26.176;2022-11-20T06:37:50;39.23;;;12.47;;
33152;SDS011;19509;43.862;26.176;2022-11-20T06:40:15;40.53;;;15.10;;
33152;SDS011;19509;43.862;26.176;2022-11-20T06:42:41;23.50;;;8.40;;
33152;SDS011;19509;43.862;26.176;2022-11-20T06:45:06;48.93;;;17.23;;
33152;SDS011;19509;43.862;26.176;2022-11-20T06:47:32;27.10;;;10.83;;
33152;SDS011;19509;43.862;26.176;2022-11-20T06:49:58;27.03;;;11.40;;
33152;SDS011;19509;43.862;26.176;2022-11-20T06:52:24;11.03;;;6.80;;
33152;SDS011;19509;43.862;26.176;2022-11-20T06:54:49;15.50;;;8.87;;
33152;SDS011;19509;43.862;26.176;2022-11-20T06:57:15;17.93;;;10.07;;
33152;SDS011;19509;43.862;26.176;2022-11-20T06:59:40;7.67;;;6.97;;
33152;SDS011;19509;43.862;26.176;2022-11-20T07:02:08;9.20;;;6.93;;
33152;SDS011;19509;43.862;26.176;2022-11-20T07:04:35;14.70;;;9.30;;
33152;SDS011;19509;43.862;26.176;2022-11-20T07:07:01;10.53;;;7.67;;
33152;SDS011;19509;43.862;26.176;2022-11-20T07:09:26;7.90;;;6.77;;
33152;SDS011;19509;43.862;26.176;2022-11-20T07:11:51;9.97;;;6.00;;
33152;SDS011;19509;43.862;26.176;2022-11-20T07:14:17;10.40;;;6.60;;
33152;SDS011;19509;43.862;26.176;2022-11-20T07:16:42;6.77;;;6.07;;
33152;SDS011;19509;43.862;26.176;2022-11-20T07:19:07;5.07;;;4.70;;
33152;SDS011;19509;43.862;26.176;2022-11-20T07:21:33;6.30;;;5.67;;
33152;SDS011;19509;43.862;26.176;2022-11-20T07:23:58;5.40;;;4.90;;
33152;SDS011;19509;43.862;26.176;2022-11-20T07:26:24;4.87;;;4.57;;
33152;SDS011;19509;43.862;26.176;2022-11-20T07:28:49;5.20;;;4.90;;
33152;SDS011;19509;43.862;26.176;2022-11-20T07:31:14;4.50;;;4.30;;
33152;SDS011;19509;43.862;26.176;2022-11-20T07:33:40;5.13;;;4.40;;
33152;SDS011;19509;43.862;26.176;2022-11-20T07:36:05;4.80;;;4.50;;
33152;SDS011;19509;43.862;26.176;2022-11-20T07:38:31;4.43;;;4.20;;
33152;SDS011;19509;43.862;26.176;2022-11-20T07:40:56;4.03;;;3.83;;
33152;SDS011;19509;43.862;26.176;2022-11-20T07:43:28;3.93;;;3.83;;
33152;SDS011;19509;43.862;26.176;2022-11-20T07:45:57;4.67;;;4.37;;
33152;SDS011;19509;43.862;26.176;2022-11-20T07:48:24;4.80;;;4.60;;
33152;SDS011;19509;43.862;26.176;2022-11-20T07:50:52;4.00;;;3.80;;
33152;SDS011;19509;43.862;26.176;2022-11-20T07:53:18;4.73;;;4.33;;
33152;SDS011;19509;43.862;26.176;2022-11-20T07:55:45;3.60;;;3.50;;
33152;SDS011;19509;43.862;26.176;2022-11-20T07:58:11;4.20;;;4.00;;
33152;SDS011;19509;43.862;26.176;2022-11-20T08:00:36;3.80;;;3.70;;
33152;SDS011;19509;43.862;26.176;2022-11-20T08:03:03;3.60;;;3.40;;
33152;SDS011;19509;43.862;26.176;2022-11-20T08:05:29;3.57;;;3.47;;
33152;SDS011;19509;43.862;26.176;2022-11-20T08:07:55;3.50;;;3.40;;
33152;SDS011;19509;43.862;26.176;2022-11-20T08:10:20;4.03;;;3.83;;
33152;SDS011;19509;43.862;26.176;2022-11-20T08:12:46;3.93;;;3.73;;
33152;SDS011;19509;43.862;26.176;2022-11-20T08:15:32;3.60;;;3.50;;
33152;SDS011;19509;43.862;26.176;2022-11-20T08:18:08;3.50;;;3.40;;
33152;SDS011;19509;43.862;26.176;2022-11-20T08:20:36;3.33;;;3.23;;
33152;SDS011;19509;43.862;26.176;2022-11-20T08:23:02;3.10;;;3.00;;
33152;SDS011;19509;43.862;26.176;2022-11-20T08:25:31;3.20;;;3.00;;
33152;SDS011;19509;43.862;26.176;2022-11-20T08:28:00;2.63;;;2.53;;
33152;SDS011;19509;43.862;26.176;2022-11-20T08:30:28;2.90;;;2.80;;
33152;SDS011;19509;43.862;26.176;2022-11-20T08:32:54;3.47;;;3.00;;
33152;SDS011;19509;43.862;26.176;2022-11-20T08:35:20;3.70;;;2.97;;
33152;SDS011;19509;43.862;26.176;2022-11-20T08:37:47;5.90;;;2.90;;
33152;SDS011;19509;43.862;26.176;2022-11-20T08:40:12;3.10;;;3.00;;
33152;SDS011;19509;43.862;26.176;2022-11-20T08:42:45;3.03;;;2.90;;
33152;SDS011;19509;43.862;26.176;2022-11-20T08:45:14;3.00;;;2.90;;
33152;SDS011;19509;43.862;26.176;2022-11-20T08:47:41;4.27;;;3.50;;
33152;SDS011;19509;43.862;26.176;2022-11-20T08:50:07;6.33;;;3.00;;
33152;SDS011;19509;43.862;26.176;2022-11-20T08:52:34;4.37;;;3.40;;
33152;SDS011;19509;43.862;26.176;2022-11-20T08:54:59;3.70;;;3.37;;
33152;SDS011;19509;43.862;26.176;2022-11-20T08:57:25;3.73;;;3.50;;
33152;SDS011;19509;43.862;26.176;2022-11-20T08:59:50;3.40;;;3.20;;
33152;SDS011;19509;43.862;26.176;2022-11-20T09:02:15;3.23;;;3.13;;
33152;SDS011;19509;43.862;26.176;2022-11-20T09:04:41;2.90;;;2.60;;
33152;SDS011;19509;43.862;26.176;2022-11-20T09:07:06;3.10;;;3.00;;
33152;SDS011;19509;43.862;26.176;2022-11-20T09:09:31;3.20;;;3.00;;
33152;SDS011;19509;43.862;26.176;2022-11-20T09:11:57;3.30;;;3.20;;
33152;SDS011;19509;43.862;26.176;2022-11-20T09:14:23;3.60;;;3.50;;
33152;SDS011;19509;43.862;26.176;2022-11-20T09:16:54;3.37;;;3.27;;
33152;SDS011;19509;43.862;26.176;2022-11-20T09:19:20;3.47;;;3.37;;
33152;SDS011;19509;43.862;26.176;2022-11-20T09:21:45;2.97;;;2.87;;
33152;SDS011;19509;43.862;26.176;2022-11-20T09:24:11;3.00;;;2.80;;
33152;SDS011;19509;43.862;26.176;2022-11-20T09:26:36;2.80;;;2.70;;
33152;SDS011;19509;43.862;26.176;2022-11-20T09:29:01;2.70;;;2.67;;
33152;SDS011;19509;43.862;26.176;2022-11-20T09:31:27;2.50;;;2.50;;
33152;SDS011;19509;43.862;26.176;2022-11-20T09:33:52;2.80;;;2.70;;
33152;SDS011;19509;43.862;26.176;2022-11-20T09:36:18;2.67;;;2.57;;
33152;SDS011;19509;43.862;26.176;2022-11-20T09:38:44;2.63;;;2.63;;
33152;SDS011;19509;43.862;26.176;2022-11-20T09:41:59;2.60;;;2.60;;
33152;SDS011;19509;43.862;26.176;2022-11-20T09:47:05;2.63;;;2.60;;
33152;SDS011;19509;43.862;26.176;2022-11-20T09:52:22;2.13;;;2.13;;
33152;SDS011;19509;43.862;26.176;2022-11-20T09:54:57;2.43;;;2.43;;
33152;SDS011;19509;43.862;26.176;2022-11-20T09:57:29;2.90;;;2.90;;
33152;SDS011;19509;43.862;26.176;2022-11-20T10:00:03;3.00;;;2.90;;
33152;SDS011;19509;43.862;26.176;2022-11-20T10:02:35;2.53;;;2.53;;
33152;SDS011;19509;43.862;26.176;2022-11-20T10:07:53;2.40;;;2.40;;
33152;SDS011;19509;43.862;26.176;2022-11-20T10:10:44;2.63;;;2.63;;
33152;SDS011;19509;43.862;26.176;2022-11-20T10:15:53;4.63;;;2.50;;
33152;SDS011;19509;43.862;26.176;2022-11-20T10:21:35;2.30;;;2.20;;
33152;SDS011;19509;43.862;26.176;2022-11-20T10:27:15;1.80;;;1.80;;
33152;SDS011;19509;43.862;26.176;2022-11-20T10:30:11;2.10;;;2.10;;
33152;SDS011;19509;43.862;26.176;2022-11-20T10:32:39;1.90;;;1.90;;
33152;SDS011;19509;43.862;26.176;2022-11-20T10:35:21;2.03;;;1.93;;
33152;SDS011;19509;43.862;26.176;2022-11-20T10:37:56;1.80;;;1.80;;
33152;SDS011;19509;43.862;26.176;2022-11-20T10:40:35;1.83;;;1.83;;
33152;SDS011;19509;43.862;26.176;2022-11-20T10:46:01;1.90;;;1.90;;
33152;SDS011;19509;43.862;26.176;2022-11-20T10:48:31;2.37;;;2.37;;
33152;SDS011;19509;43.862;26.176;2022-11-20T10:56:20;2.30;;;2.30;;
33152;SDS011;19509;43.862;26.176;2022-11-20T11:01:41;3.03;;;3.03;;
33152;SDS011;19509;43.862;26.176;2022-11-20T11:04:14;2.67;;;2.67;;
33152;SDS011;19509;43.862;26.176;2022-11-20T11:06:54;4.73;;;4.63;;
33152;SDS011;19509;43.862;26.176;2022-11-20T11:09:34;5.07;;;4.93;;
33152;SDS011;19509;43.862;26.176;2022-11-20T11:12:08;2.67;;;2.60;;
33152;SDS011;19509;43.862;26.176;2022-11-20T11:14:44;3.40;;;3.30;;
33152;SDS011;19509;43.862;26.176;2022-11-20T11:20:22;3.50;;;3.40;;
33152;SDS011;19509;43.862;26.176;2022-11-20T11:22:52;3.60;;;3.50;;
33152;SDS011;19509;43.862;26.176;2022-11-20T11:25:33;4.00;;;3.90;;
33152;SDS011;19509;43.862;26.176;2022-11-20T11:28:04;4.10;;;3.80;;
33152;SDS011;19509;43.862;26.176;2022-11-20T11:30:52;3.63;;;3.53;;
33152;SDS011;19509;43.862;26.176;2022-11-20T11:33:28;3.70;;;3.60;;
33152;SDS011;19509;43.862;26.176;2022-11-20T11:35:56;3.20;;;3.10;;
33152;SDS011;19509;43.862;26.176;2022-11-20T11:38:37;3.80;;;3.70;;
33152;SDS011;19509;43.862;26.176;2022-11-20T11:41:06;3.30;;;3.20;;
33152;SDS011;19509;43.862;26.176;2022-11-20T11:43:35;3.13;;;3.03;;
33152;SDS011;19509;43.862;26.176;2022-11-20T11:51:41;2.90;;;2.80;;
33152;SDS011;19509;43.862;26.176;2022-11-20T11:54:23;3.10;;;3.00;;
33152;SDS011;19509;43.862;26.176;2022-11-20T11:56:53;3.07;;;2.97;;
33152;SDS011;19509;43.862;26.176;2022-11-20T11:59:24;3.10;;;3.00;;
33152;SDS011;19509;43.862;26.176;2022-11-20T12:02:00;3.40;;;3.30;;
33152;SDS011;19509;43.862;26.176;2022-11-20T12:04:50;3.60;;;3.50;;
33152;SDS011;19509;43.862;26.176;2022-11-20T12:07:27;3.97;;;3.77;;
33152;SDS011;19509;43.862;26.176;2022-11-20T12:10:04;3.30;;;3.20;;
33152;SDS011;19509;43.862;26.176;2022-11-20T12:12:38;3.57;;;3.47;;
33152;SDS011;19509;43.862;26.176;2022-11-20T12:15:13;3.10;;;3.00;;
33152;SDS011;19509;43.862;26.176;2022-11-20T12:17:48;3.10;;;3.00;;
33152;SDS011;19509;43.862;26.176;2022-11-20T12:20:13;3.43;;;3.33;;
33152;SDS011;19509;43.862;26.176;2022-11-20T12:22:52;3.50;;;3.40;;
33152;SDS011;19509;43.862;26.176;2022-11-20T12:25:27;3.33;;;3.23;;
33152;SDS011;19509;43.862;26.176;2022-11-20T12:31:41;3.70;;;3.60;;
33152;SDS011;19509;43.862;26.176;2022-11-20T12:34:08;3.57;;;3.47;;
33152;SDS011;19509;43.862;26.176;2022-11-20T12:37:04;3.27;;;3.17;;
33152;SDS011;19509;43.862;26.176;2022-11-20T12:39:41;3.50;;;3.40;;
33152;SDS011;19509;43.862;26.176;2022-11-20T12:42:20;3.00;;;2.90;;
33152;SDS011;19509;43.862;26.176;2022-11-20T12:45:42;3.10;;;3.00;;
33152;SDS011;19509;43.862;26.176;2022-11-20T13:01:38;2.97;;;2.87;;
33152;SDS011;19509;43.862;26.176;2022-11-20T13:04:31;3.07;;;2.97;;
33152;SDS011;19509;43.862;26.176;2022-11-20T13:06:59;4.00;;;3.90;;
33152;SDS011;19509;43.862;26.176;2022-11-20T13:09:27;3.70;;;3.60;;
33152;SDS011;19509;43.862;26.176;2022-11-20T13:12:40;2.53;;;2.53;;
33152;SDS011;19509;43.862;26.176;2022-11-20T13:15:13;5.70;;;5.60;;
33152;SDS011;19509;43.862;26.176;2022-11-20T13:18:10;3.10;;;3.00;;
33152;SDS011;19509;43.862;26.176;2022-11-20T13:20:41;2.70;;;2.60;;
33152;SDS011;19509;43.862;26.176;2022-11-20T13:23:08;2.87;;;2.77;;
33152;SDS011;19509;43.862;26.176;2022-11-20T13:25:35;3.00;;;2.90;;
33152;SDS011;19509;43.862;26.176;2022-11-20T13:28:26;3.30;;;3.20;;
33152;SDS011;19509;43.862;26.176;2022-11-20T13:30:55;3.00;;;2.90;;
33152;SDS011;19509;43.862;26.176;2022-11-20T13:33:35;2.80;;;2.70;;
33152;SDS011;19509;43.862;26.176;2022-11-20T13:36:06;4.73;;;4.63;;
33152;SDS011;19509;43.862;26.176;2022-11-20T13:38:49;3.83;;;3.73;;
33152;SDS011;19509;43.862;26.176;2022-11-20T13:41:23;3.23;;;3.13;;
33152;SDS011;19509;43.862;26.176;2022-11-20T13:44:05;3.13;;;3.03;;
33152;SDS011;19509;43.862;26.176;2022-11-20T13:46:42;2.50;;;2.50;;
33152;SDS011;19509;43.862;26.176;2022-11-20T13:49:24;2.80;;;2.80;;
33152;SDS011;19509;43.862;26.176;2022-11-20T13:51:59;2.70;;;2.60;;
33152;SDS011;19509;43.862;26.176;2022-11-20T13:57:33;3.13;;;3.03;;
33152;SDS011;19509;43.862;26.176;2022-11-20T14:00:14;2.27;;;2.27;;
33152;SDS011;19509;43.862;26.176;2022-11-20T14:02:42;2.40;;;2.40;;
33152;SDS011;19509;43.862;26.176;2022-11-20T14:05:21;2.30;;;2.30;;
33152;SDS011;19509;43.862;26.176;2022-11-20T14:07:49;2.43;;;2.43;;
33152;SDS011;19509;43.862;26.176;2022-11-20T14:10:26;2.67;;;2.60;;
33152;SDS011;19509;43.862;26.176;2022-11-20T14:12:53;2.77;;;2.67;;
33152;SDS011;19509;43.862;26.176;2022-11-20T14:15:28;2.80;;;2.70;;
33152;SDS011;19509;43.862;26.176;2022-11-20T14:17:55;2.80;;;2.70;;
33152;SDS011;19509;43.862;26.176;2022-11-20T14:20:23;2.70;;;2.70;;
33152;SDS011;19509;43.862;26.176;2022-11-20T14:22:52;2.77;;;2.67;;
33152;SDS011;19509;43.862;26.176;2022-11-20T14:27:53;2.60;;;2.53;;
33152;SDS011;19509;43.862;26.176;2022-11-20T14:30:25;3.23;;;3.13;;
33152;SDS011;19509;43.862;26.176;2022-11-20T14:32:53;3.17;;;3.10;;
33152;SDS011;19509;43.862;26.176;2022-11-20T14:35:26;3.57;;;3.47;;
33152;SDS011;19509;43.862;26.176;2022-11-20T14:37:56;3.40;;;3.30;;
33152;SDS011;19509;43.862;26.176;2022-11-20T14:42:50;3.40;;;3.20;;
33152;SDS011;19509;43.862;26.176;2022-11-20T14:45:16;3.03;;;2.93;;
33152;SDS011;19509;43.862;26.176;2022-11-20T14:47:43;3.70;;;3.40;;
33152;SDS011;19509;43.862;26.176;2022-11-20T14:50:20;3.40;;;3.30;;
33152;SDS011;19509;43.862;26.176;2022-11-20T14:52:52;3.40;;;3.30;;
33152;SDS011;19509;43.862;26.176;2022-11-20T14:57:54;4.10;;;4.00;;
33152;SDS011;19509;43.862;26.176;2022-11-20T15:00:21;3.83;;;3.73;;
33152;SDS011;19509;43.862;26.176;2022-11-20T15:02:48;3.70;;;3.60;;
33152;SDS011;19509;43.862;26.176;2022-11-20T15:05:15;4.00;;;3.90;;
33152;SDS011;19509;43.862;26.176;2022-11-20T15:07:47;3.77;;;2.90;;
33152;SDS011;19509;43.862;26.176;2022-11-20T15:12:48;2.80;;;2.70;;
33152;SDS011;19509;43.862;26.176;2022-11-20T15:15:16;3.30;;;3.20;;
33152;SDS011;19509;43.862;26.176;2022-11-20T15:18:04;2.70;;;2.60;;
33152;SDS011;19509;43.862;26.176;2022-11-20T15:20:33;2.80;;;2.70;;
33152;SDS011;19509;43.862;26.176;2022-11-20T15:23:00;2.60;;;2.60;;
33152;SDS011;19509;43.862;26.176;2022-11-20T15:25:26;2.60;;;2.50;;
33152;SDS011;19509;43.862;26.176;2022-11-20T15:27:53;2.10;;;2.10;;
33152;SDS011;19509;43.862;26.176;2022-11-20T15:30:21;2.80;;;2.70;;
33152;SDS011;19509;43.862;26.176;2022-11-20T15:32:47;2.50;;;2.40;;
33152;SDS011;19509;43.862;26.176;2022-11-20T15:35:13;2.57;;;2.47;;
33152;SDS011;19509;43.862;26.176;2022-11-20T15:37:40;2.83;;;2.60;;
33152;SDS011;19509;43.862;26.176;2022-11-20T15:40:06;5.70;;;4.43;;
33152;SDS011;19509;43.862;26.176;2022-11-20T15:42:32;5.07;;;4.87;;
33152;SDS011;19509;43.862;26.176;2022-11-20T15:44:58;8.97;;;8.33;;
33152;SDS011;19509;43.862;26.176;2022-11-20T15:47:31;8.60;;;8.10;;
33152;SDS011;19509;43.862;26.176;2022-11-20T15:49:59;10.87;;;10.07;;
33152;SDS011;19509;43.862;26.176;2022-11-20T15:52:24;6.27;;;5.97;;
33152;SDS011;19509;43.862;26.176;2022-11-20T15:54:50;4.50;;;4.40;;
33152;SDS011;19509;43.862;26.176;2022-11-20T15:57:15;5.97;;;5.67;;